createdAt,value
2019-04-21T00:01:14.721Z,67.90
2019-04-21T00:03:50.186Z,68.60
2019-04-21T00:06:35.340Z,69.60
2019-04-21T00:09:09.372Z,70.40
2019-04-21T00:11:29.910Z,71.20
2019-04-21T00:13:52.591Z,70.60
2019-04-21T00:16:12.624Z,71.30
2019-04-21T00:18:50.627Z,72.80
2019-04-21T00:21:22.514Z,73.10
2019-04-21T00:23:59.072Z,74.00
2019-04-21T00:26:23.837Z,74.00
2019-04-21T00:29:02.019Z,74.50
2019-04-21T00:31:23.034Z,75.40
2019-04-21T00:33:37.040Z,75.70
2019-04-21T00:36:09.529Z,76.00
2019-04-21T00:39:03.138Z,76.60
2019-04-21T00:41:19.329Z,77.10
2019-04-21T00:43:42.620Z,77.90
2019-04-21T00:46:04.745Z,78.00
2019-04-21T00:48:41.166Z,78.50
2019-04-21T00:51:27.618Z,79.10
2019-04-21T00:53:51.589Z,80.00
2019-04-21T00:56:18.156Z,81.50
2019-04-21T00:58:40.613Z,82.30
2019-04-21T01:01:12.261Z,82.10
2019-04-21T01:03:41.727Z,83.00
2019-04-21T01:06:03.683Z,83.60
2019-04-21T01:08:35.723Z,84.30
2019-04-21T01:10:53.173Z,85.40
2019-04-21T01:13:39.461Z,85.40
2019-04-21T01:16:00.816Z,86.70
2019-04-21T01:18:29.519Z,87.50
2019-04-21T01:20:34.663Z,87.80
2019-04-21T01:23:02.189Z,88.70
2019-04-21T01:25:37.174Z,90.20
2019-04-21T01:28:16.728Z,90.50
2019-04-21T01:30:45.143Z,90.50
2019-04-21T01:33:17.353Z,90.50
2019-04-21T01:35:44.062Z,90.70
2019-04-21T01:38:14.252Z,91.20
2019-04-21T01:40:43.291Z,91.40
2019-04-21T01:43:14.844Z,91.60
2019-04-21T01:45:45.890Z,91.70
2019-04-21T01:48:13.414Z,92.00
2019-04-21T01:50:40.939Z,92.30
2019-04-21T01:53:18.775Z,92.60
2019-04-21T01:55:48.548Z,92.50
2019-04-21T01:58:11.736Z,92.30
2019-04-21T02:00:45.599Z,92.50
2019-04-21T02:03:34.513Z,92.40
2019-04-21T02:05:54.903Z,92.50
2019-04-21T02:08:11.020Z,92.30
2019-04-21T02:10:46.226Z,92.80
2019-04-21T02:13:09.097Z,92.80
2019-04-21T02:15:42.071Z,93.00
2019-04-21T02:18:08.957Z,93.60
2019-04-21T02:20:26.937Z,93.70
2019-04-21T02:23:31.460Z,93.80
2019-04-21T02:25:32.144Z,94.00
2019-04-21T02:28:03.305Z,94.00
2019-04-21T02:31:05.965Z,94.20
2019-04-21T02:33:16.953Z,94.80
2019-04-21T02:40:38.502Z,95.00
2019-04-21T02:43:11.335Z,94.90
2019-04-21T02:50:33.530Z,95.40
2019-04-21T02:53:06.391Z,95.70
2019-04-21T02:58:13.175Z,96.10
2019-04-21T03:03:03.918Z,96.30
2019-04-21T03:05:47.119Z,96.40
2019-04-21T03:08:03.816Z,96.40
2019-04-21T03:10:43.415Z,96.70
2019-04-21T03:13:03.628Z,96.50
2019-04-21T03:18:04.852Z,96.90
2019-04-21T03:20:35.337Z,97.20
2019-04-21T03:23:00.066Z,97.00
2019-04-21T03:30:45.031Z,97.40
2019-04-21T03:37:42.482Z,96.80
2019-04-21T03:40:15.409Z,96.80
2019-04-21T03:42:52.958Z,96.80
2019-04-21T03:45:12.714Z,96.90
2019-04-21T03:47:34.538Z,96.90
2019-04-21T03:52:45.565Z,97.20
2019-04-21T04:00:35.228Z,97.40
2019-04-21T04:02:54.624Z,97.60
2019-04-21T04:05:45.321Z,97.70
2019-04-21T04:08:31.529Z,97.50
2019-04-21T04:10:38.784Z,97.50
2019-04-21T04:12:54.692Z,97.80
2019-04-21T04:15:28.974Z,97.70
2019-04-21T04:17:41.170Z,97.70
2019-04-21T04:20:11.746Z,97.50
2019-04-21T04:25:15.456Z,97.60
2019-04-21T04:27:53.817Z,97.30
2019-04-21T04:30:19.369Z,97.10
2019-04-21T04:37:32.216Z,97.20
2019-04-21T04:42:39.323Z,96.80
2019-04-21T04:50:10.271Z,96.60
2019-04-21T04:52:32.576Z,96.50
2019-04-21T04:55:00.712Z,96.70
2019-04-21T05:00:01.681Z,96.70
2019-04-21T05:02:29.839Z,97.20
2019-04-21T05:09:50.149Z,96.70
2019-04-21T05:12:10.153Z,96.50
2019-04-21T05:14:48.271Z,96.60
2019-04-21T05:17:14.240Z,96.50
2019-04-21T05:19:51.867Z,96.60
2019-04-21T05:22:05.258Z,96.90
2019-04-21T05:24:24.058Z,96.30
2019-04-21T05:26:47.906Z,96.20
2019-04-21T05:29:15.878Z,96.20
2019-04-21T05:31:57.101Z,95.90
2019-04-21T05:34:26.012Z,96.00
2019-04-21T05:36:57.826Z,95.70
2019-04-21T05:39:37.551Z,95.60
2019-04-21T05:41:57.957Z,95.60
2019-04-21T05:44:44.484Z,95.50
2019-04-21T05:47:15.847Z,95.40
2019-04-21T05:49:42.084Z,95.40
2019-04-21T05:52:04.099Z,95.40
2019-04-21T05:54:44.358Z,95.10
2019-04-21T05:57:05.406Z,95.20
2019-04-21T05:59:41.710Z,94.80
2019-04-21T06:02:13.598Z,94.60
2019-04-21T06:04:51.808Z,94.40
2019-04-21T06:07:09.713Z,94.20
2019-04-21T06:09:37.225Z,93.90
2019-04-21T06:12:03.758Z,93.90
2019-04-21T06:14:29.436Z,93.70
2019-04-21T06:19:33.001Z,93.00
2019-04-21T06:21:55.729Z,92.40
2019-04-21T06:24:21.561Z,91.90
2019-04-21T06:27:00.343Z,91.50
2019-04-21T06:29:23.432Z,91.40
2019-04-21T06:32:12.706Z,90.80
2019-04-21T06:34:19.856Z,90.70
2019-04-21T06:39:28.305Z,90.40
2019-04-21T06:41:49.263Z,90.70
2019-04-21T06:44:16.735Z,90.40
2019-04-21T06:47:02.632Z,90.30
2019-04-21T06:49:19.009Z,90.10
2019-04-21T06:51:44.804Z,90.10
2019-04-21T06:54:30.627Z,87.50
2019-04-21T06:59:20.830Z,85.00
2019-04-21T07:01:42.247Z,85.40
2019-04-21T07:06:45.655Z,84.40
2019-04-21T07:11:25.315Z,84.40
2019-04-21T07:14:05.937Z,83.90
2019-04-21T07:16:37.160Z,82.30
2019-04-21T07:21:27.552Z,79.80
2019-04-21T07:24:00.555Z,79.50
2019-04-21T07:26:22.250Z,79.70
2019-04-21T07:28:59.763Z,78.80
2019-04-21T07:31:22.768Z,76.80
2019-04-21T07:36:21.640Z,76.50
2019-04-21T07:38:41.138Z,76.90
2019-04-21T07:41:08.250Z,74.70
2019-04-21T07:43:29.752Z,74.40
2019-04-21T07:45:58.160Z,74.00
2019-04-21T07:48:37.534Z,74.10
2019-04-21T07:51:09.567Z,73.90
2019-04-21T07:53:52.637Z,73.40
2019-04-21T07:55:53.709Z,74.00
2019-04-21T07:58:45.885Z,72.80
2019-04-21T08:01:16.679Z,72.10
2019-04-21T08:03:36.860Z,71.30
2019-04-21T08:06:02.365Z,70.60
2019-04-21T08:08:26.527Z,70.10
2019-04-21T08:10:57.080Z,70.30
2019-04-21T08:13:34.666Z,69.80
2019-04-21T08:15:58.255Z,68.50
2019-04-21T08:18:27.097Z,67.90
2019-04-21T08:20:54.443Z,66.80
2019-04-21T08:23:25.590Z,67.10
2019-04-21T08:26:00.633Z,67.30
2019-04-21T08:28:26.418Z,67.60
2019-04-21T08:30:52.280Z,68.30
2019-04-21T08:33:26.227Z,68.20
2019-04-21T08:38:13.563Z,67.40
2019-04-21T08:40:51.346Z,66.40
2019-04-21T08:43:10.927Z,65.90
2019-04-21T08:45:45.311Z,65.00
2019-04-21T08:48:10.574Z,65.40
2019-04-21T08:50:37.658Z,64.90
2019-04-21T08:53:07.086Z,64.00
2019-04-21T08:55:49.003Z,63.40
2019-04-21T08:58:36.993Z,62.60
2019-04-21T09:01:01.084Z,62.60
2019-04-21T09:03:33.428Z,62.70
2019-04-21T09:06:04.312Z,62.20
2019-04-21T09:08:36.308Z,62.00
2019-04-21T09:10:56.100Z,62.70
2019-04-21T09:13:25.132Z,61.90
2019-04-21T09:15:54.896Z,61.50
2019-04-21T09:18:41.909Z,59.90
2019-04-21T09:21:23.149Z,59.30
2019-04-21T09:23:40.554Z,59.30
2019-04-21T09:26:14.034Z,59.10
2019-04-21T09:28:34.911Z,59.20
2019-04-21T09:30:53.430Z,57.90
2019-04-21T09:33:16.844Z,57.70
2019-04-21T09:35:50.145Z,57.20
2019-04-21T09:38:23.608Z,56.80
2019-04-21T09:40:45.432Z,97.30
2019-04-21T09:43:11.550Z,59.50
2019-04-21T09:45:37.456Z,96.80
2019-04-21T09:48:09.956Z,59.20
2019-04-21T09:50:34.992Z,58.90
2019-04-21T09:53:12.575Z,57.10
2019-04-21T09:55:39.133Z,55.70
2019-04-21T09:58:10.054Z,57.70
2019-04-21T10:00:29.967Z,59.00
2019-04-21T10:03:00.930Z,57.40
2019-04-21T10:05:22.754Z,54.90
2019-04-21T10:07:49.082Z,55.60
2019-04-21T10:10:17.130Z,57.60
2019-04-21T10:12:43.611Z,64.60
2019-04-21T10:15:10.741Z,59.60
2019-04-21T10:17:41.974Z,53.00
2019-04-21T10:20:11.816Z,52.60
2019-04-21T10:22:39.329Z,51.30
2019-04-21T10:25:10.454Z,56.70
2019-04-21T10:27:37.444Z,50.80
2019-04-21T10:30:09.945Z,49.30
2019-04-21T10:32:36.582Z,48.90
2019-04-21T10:35:07.453Z,48.70
2019-04-21T10:37:45.467Z,62.60
2019-04-21T10:40:07.530Z,59.40
2019-04-21T10:42:35.365Z,52.90
2019-04-21T10:45:03.486Z,50.50
2019-04-21T10:47:31.204Z,46.30
2019-04-21T10:49:58.344Z,47.50
2019-04-21T10:52:43.303Z,47.20
2019-04-21T10:55:28.977Z,46.70
2019-04-21T10:57:40.270Z,46.30
2019-04-21T11:00:09.131Z,46.90
2019-04-21T11:02:41.123Z,47.40
2019-04-21T11:05:08.966Z,47.90
2019-04-21T11:07:55.361Z,47.70
2019-04-21T11:10:12.074Z,48.30
2019-04-21T11:12:39.731Z,47.80
2019-04-21T11:15:07.376Z,47.20
2019-04-21T11:17:34.183Z,46.70
2019-04-21T11:20:01.552Z,46.00
2019-04-21T11:22:28.523Z,45.50
2019-04-21T11:24:55.140Z,45.10
2019-04-21T11:27:22.607Z,44.90
2019-04-21T11:29:49.454Z,44.50
2019-04-21T11:32:16.832Z,44.80
2019-04-21T11:34:43.446Z,44.60
2019-04-21T11:37:12.408Z,43.30
2019-04-21T11:39:49.410Z,42.20
2019-04-21T11:42:09.960Z,41.70
2019-04-21T11:44:37.358Z,42.50
2019-04-21T11:47:06.634Z,41.90
2019-04-21T11:49:33.068Z,41.00
2019-04-21T11:52:00.694Z,41.70
2019-04-21T11:54:27.166Z,40.50
2019-04-21T11:56:54.805Z,39.80
2019-04-21T11:59:21.793Z,41.50
2019-04-21T12:01:49.680Z,40.80
2019-04-21T12:04:16.245Z,40.90
2019-04-21T12:06:46.671Z,40.60
2019-04-21T12:09:11.813Z,41.30
2019-04-21T12:11:39.029Z,40.60
2019-04-21T12:14:05.954Z,40.60
2019-04-21T12:16:33.121Z,40.70
2019-04-21T12:19:00.935Z,40.30
2019-04-21T12:21:31.162Z,39.70
2019-04-21T12:23:56.621Z,39.70
2019-04-21T12:26:24.187Z,39.30
2019-04-21T12:28:51.962Z,39.60
2019-04-21T12:31:23.541Z,38.60
2019-04-21T12:33:51.993Z,39.10
2019-04-21T12:36:19.814Z,39.80
2019-04-21T12:38:50.959Z,40.20
2019-04-21T12:41:14.962Z,38.90
2019-04-21T12:43:42.454Z,39.20
2019-04-21T12:46:09.695Z,39.00
2019-04-21T12:48:36.096Z,38.90
2019-04-21T12:51:03.905Z,38.70
2019-04-21T12:53:31.794Z,37.20
2019-04-21T12:55:59.912Z,36.90
2019-04-21T12:58:26.465Z,36.30
2019-04-21T13:00:53.146Z,36.00
2019-04-21T13:03:23.104Z,37.50
2019-04-21T13:05:49.575Z,38.90
2019-04-21T13:08:15.961Z,39.40
2019-04-21T13:13:19.823Z,39.00
2019-04-21T13:15:47.328Z,37.70
2019-04-21T13:18:14.373Z,36.90
2019-04-21T13:20:42.169Z,38.00
2019-04-21T13:23:10.174Z,37.50
2019-04-21T13:25:38.079Z,36.80
2019-04-21T13:28:05.001Z,36.10
2019-04-21T13:30:32.594Z,36.40
2019-04-21T13:33:00.741Z,35.50
2019-04-21T13:35:28.956Z,34.50
2019-04-21T13:37:56.318Z,34.20
2019-04-21T13:40:53.027Z,34.00
2019-04-21T13:43:07.889Z,34.10
2019-04-21T13:45:34.281Z,33.20
2019-04-21T13:48:02.373Z,34.20
2019-04-21T13:50:29.099Z,35.20
2019-04-21T13:52:56.641Z,35.10
2019-04-21T13:55:25.392Z,34.50
2019-04-21T13:57:52.817Z,34.70
2019-04-21T14:00:21.294Z,34.30
2019-04-21T14:02:48.977Z,34.00
2019-04-21T14:05:15.953Z,33.60
2019-04-21T14:07:43.903Z,33.20
2019-04-21T14:10:12.333Z,34.50
2019-04-21T14:12:38.673Z,34.30
2019-04-21T14:15:06.434Z,34.40
2019-04-21T14:17:35.035Z,33.60
2019-04-21T14:20:03.506Z,34.10
2019-04-21T14:22:29.820Z,34.20
2019-04-21T14:24:56.327Z,34.60
2019-04-21T14:27:23.912Z,34.40
2019-04-21T14:29:51.385Z,34.30
2019-04-21T14:32:18.242Z,35.00
2019-04-21T14:34:47.163Z,35.70
2019-04-21T14:37:13.110Z,36.40
2019-04-21T14:39:51.758Z,36.10
2019-04-21T14:42:08.451Z,36.70
2019-04-21T14:44:34.931Z,37.10
2019-04-21T14:47:09.258Z,37.00
2019-04-21T14:49:41.558Z,37.40
2019-04-21T14:52:19.141Z,37.30
2019-04-21T14:54:54.448Z,37.30
2019-04-21T14:57:21.270Z,37.20
2019-04-21T14:59:48.969Z,36.30
2019-04-21T15:02:16.054Z,36.20
2019-04-21T15:04:43.850Z,36.20
2019-04-21T15:07:10.357Z,36.30
2019-04-21T15:09:37.675Z,36.40
2019-04-21T15:12:05.720Z,36.20
2019-04-21T15:14:33.737Z,36.70
2019-04-21T15:17:01.015Z,35.20
2019-04-21T15:19:28.655Z,34.80
2019-04-21T15:21:56.578Z,35.40
2019-04-21T15:24:24.327Z,35.20
2019-04-21T15:26:52.899Z,36.70
2019-04-21T15:29:18.871Z,37.30
2019-04-21T15:31:46.494Z,37.70
2019-04-21T15:34:13.208Z,37.90
2019-04-21T15:36:40.115Z,37.90
2019-04-21T15:39:07.803Z,38.10
2019-04-21T15:41:36.609Z,38.40
2019-04-21T15:44:04.748Z,38.70
2019-04-21T15:46:33.882Z,37.90
2019-04-21T15:49:00.559Z,36.20
2019-04-21T15:51:28.070Z,35.90
2019-04-21T15:53:57.570Z,34.60
2019-04-21T15:56:26.856Z,35.20
2019-04-21T15:59:14.610Z,35.70
2019-04-21T16:01:46.410Z,36.00
2019-04-21T16:04:14.623Z,36.20
2019-04-21T16:06:41.556Z,36.80
2019-04-21T16:09:14.189Z,36.40
2019-04-21T16:11:37.877Z,37.20
2019-04-21T16:14:05.781Z,37.20
2019-04-21T16:16:34.087Z,36.80
2019-04-21T16:19:00.601Z,36.90
2019-04-21T16:21:26.937Z,36.90
2019-04-21T16:23:54.149Z,36.10
2019-04-21T16:26:20.519Z,36.10
2019-04-21T16:28:46.953Z,37.50
2019-04-21T16:31:14.251Z,37.50
2019-04-21T16:33:43.150Z,37.80
2019-04-21T16:36:12.906Z,38.00
2019-04-21T16:38:39.633Z,37.90
2019-04-21T16:41:10.066Z,37.60
2019-04-21T16:43:35.417Z,37.70
2019-04-21T16:46:01.735Z,37.80
2019-04-21T16:48:28.171Z,38.10
2019-04-21T16:50:55.382Z,38.20
2019-04-21T16:53:26.360Z,38.40
2019-04-21T16:56:00.725Z,38.60
2019-04-21T16:58:41.032Z,38.60
2019-04-21T17:01:15.932Z,38.60
2019-04-21T17:03:40.599Z,38.50
2019-04-21T17:06:07.085Z,38.80
2019-04-21T17:08:33.877Z,39.10
2019-04-21T17:11:10.920Z,39.30
2019-04-21T17:13:29.647Z,39.40
2019-04-21T17:16:16.913Z,39.50
2019-04-21T17:18:40.615Z,39.60
2019-04-21T17:20:57.646Z,39.80
2019-04-21T17:23:21.744Z,39.90
2019-04-21T17:25:48.425Z,40.00
2019-04-21T17:28:15.480Z,40.20
2019-04-21T17:30:42.237Z,40.80
2019-04-21T17:33:11.210Z,43.00
2019-04-21T17:35:38.536Z,45.20
2019-04-21T17:38:05.905Z,46.50
2019-04-21T17:40:33.716Z,46.80
2019-04-21T17:43:05.490Z,47.30
2019-04-21T17:45:29.013Z,47.80
2019-04-21T17:48:02.371Z,49.00
2019-04-21T17:50:25.835Z,49.00
2019-04-21T17:53:00.906Z,49.30
2019-04-21T17:55:31.344Z,50.40
2019-04-21T17:58:12.191Z,49.70
2019-04-21T18:01:10.166Z,50.00
2019-04-21T18:03:40.405Z,50.10
2019-04-21T18:05:50.530Z,50.30
2019-04-21T18:08:27.830Z,50.60
2019-04-21T18:10:47.754Z,50.80
2019-04-21T18:13:08.790Z,50.50
2019-04-21T18:15:51.063Z,50.40
2019-04-21T18:17:58.820Z,50.70
2019-04-21T18:20:28.058Z,50.70
2019-04-21T18:22:57.247Z,50.70
2019-04-21T18:25:39.831Z,50.60
2019-04-21T18:27:56.413Z,50.60
2019-04-21T18:30:36.002Z,50.50
2019-04-21T18:33:05.848Z,50.60
2019-04-21T18:35:51.752Z,50.70
2019-04-21T18:38:26.068Z,50.60
2019-04-21T18:40:53.948Z,50.60
2019-04-21T18:43:56.736Z,50.50
2019-04-21T18:46:14.981Z,50.30
2019-04-21T18:48:31.549Z,50.30
2019-04-21T18:50:58.965Z,50.50
2019-04-21T18:53:44.780Z,50.80
2019-04-21T18:56:05.539Z,50.30
2019-04-21T18:58:28.675Z,50.40
2019-04-21T19:01:03.231Z,50.60
2019-04-21T19:03:28.179Z,50.80
2019-04-21T19:05:58.263Z,50.90
2019-04-21T19:08:44.748Z,52.10
2019-04-21T19:11:08.261Z,51.50
2019-04-21T19:13:47.842Z,51.60
2019-04-21T19:21:02.809Z,51.90
2019-04-21T19:23:41.029Z,51.80
2019-04-21T19:26:10.414Z,51.90
2019-04-21T19:28:36.175Z,52.30
2019-04-21T19:31:04.996Z,52.60
2019-04-21T19:33:18.772Z,52.80
2019-04-21T19:35:35.394Z,52.60
2019-04-21T19:38:07.055Z,52.80
2019-04-21T19:40:48.733Z,52.80
2019-04-21T19:43:09.462Z,52.90
2019-04-21T19:45:36.811Z,53.10
2019-04-21T19:48:14.998Z,53.20
2019-04-21T19:50:44.904Z,53.10
2019-04-21T19:53:03.072Z,53.20
2019-04-21T19:55:24.307Z,53.30
2019-04-21T19:57:50.774Z,53.10
2019-04-21T20:00:17.839Z,52.90
2019-04-21T20:02:45.715Z,53.10
2019-04-21T20:05:20.430Z,53.30
2019-04-21T20:08:02.947Z,53.50
2019-04-21T20:10:26.945Z,53.60
2019-04-21T20:12:56.651Z,53.80
2019-04-21T20:15:33.001Z,53.90
2019-04-21T20:17:50.190Z,53.90
2019-04-21T20:20:06.748Z,54.10
2019-04-21T20:22:38.397Z,53.90
2019-04-21T20:25:07.913Z,54.30
2019-04-21T20:27:38.862Z,54.40
2019-04-21T20:30:14.022Z,54.60
2019-04-21T20:32:45.368Z,54.70
2019-04-21T20:35:14.943Z,54.90
2019-04-21T20:37:40.687Z,55.10
2019-04-21T20:39:58.919Z,55.20
2019-04-21T20:42:27.901Z,55.40
2019-04-21T20:45:22.081Z,55.70
2019-04-21T20:47:25.620Z,56.50
2019-04-21T20:49:59.472Z,55.80
2019-04-21T20:52:35.556Z,55.90
2019-04-21T20:54:55.076Z,56.20
2019-04-21T20:57:25.640Z,56.20
2019-04-21T20:59:54.093Z,56.40
2019-04-21T21:02:26.439Z,56.40
2019-04-21T21:04:43.486Z,56.40
2019-04-21T21:07:34.607Z,56.80
2019-04-21T21:09:55.873Z,56.80
2019-04-21T21:14:43.270Z,57.60
2019-04-21T21:17:26.569Z,58.60
2019-04-21T21:19:49.011Z,58.50
2019-04-21T21:22:04.086Z,58.40
2019-04-21T21:24:41.838Z,58.50
2019-04-21T21:27:05.490Z,58.90
2019-04-21T21:29:35.439Z,58.90
2019-04-21T21:32:11.182Z,59.20
2019-04-21T21:34:34.507Z,58.90
2019-04-21T21:37:01.894Z,59.00
2019-04-21T21:39:36.327Z,59.20
2019-04-21T21:41:46.401Z,59.70
2019-04-21T21:44:14.431Z,60.10
2019-04-21T21:46:49.927Z,60.20
2019-04-21T21:49:24.746Z,60.60
2019-04-21T21:51:43.025Z,61.00
2019-04-21T21:54:03.064Z,60.90
2019-04-21T21:56:30.658Z,61.10
2019-04-21T21:58:57.184Z,61.40
2019-04-21T22:01:33.259Z,61.60
2019-04-21T22:04:01.689Z,62.10
2019-04-21T22:06:23.915Z,62.20
2019-04-21T22:08:50.312Z,62.50
2019-04-21T22:11:17.984Z,62.40
2019-04-21T22:13:54.363Z,62.90
2019-04-21T22:16:15.694Z,63.20
2019-04-21T22:19:04.700Z,63.50
2019-04-21T22:21:27.953Z,63.40
2019-04-21T22:23:49.030Z,64.00
2019-04-21T22:26:07.183Z,65.20
2019-04-21T22:28:33.891Z,63.90
2019-04-21T22:31:01.073Z,64.40
2019-04-21T22:33:31.243Z,65.30
2019-04-21T22:36:03.759Z,65.60
2019-04-21T22:38:38.117Z,65.60
2019-04-21T22:41:09.315Z,66.00
2019-04-21T22:43:28.483Z,66.00
2019-04-21T22:45:49.494Z,66.80
2019-04-21T22:48:20.985Z,66.30
2019-04-21T22:50:44.565Z,66.70
2019-04-21T22:53:15.480Z,67.40
2019-04-21T22:56:10.893Z,68.40
2019-04-21T22:58:34.042Z,69.10
2019-04-21T23:01:01.514Z,68.50
2019-04-21T23:03:27.018Z,69.10
2019-04-21T23:05:55.796Z,69.10
2019-04-21T23:08:26.451Z,69.40
2019-04-21T23:10:59.254Z,69.90
2019-04-21T23:13:23.151Z,70.50
2019-04-21T23:15:51.781Z,70.90
2019-04-21T23:18:31.916Z,71.80
2019-04-21T23:20:59.188Z,73.40
2019-04-21T23:23:35.813Z,72.50
2019-04-21T23:25:54.345Z,72.00
2019-04-21T23:28:22.191Z,72.20
2019-04-21T23:30:55.849Z,71.90
2019-04-21T23:33:07.019Z,72.70
2019-04-21T23:35:36.753Z,72.70
2019-04-21T23:38:04.738Z,73.10
2019-04-21T23:40:30.803Z,73.60
2019-04-21T23:43:00.046Z,73.60
2019-04-21T23:45:30.535Z,73.40
2019-04-21T23:48:08.101Z,73.70
2019-04-21T23:50:33.252Z,73.80
2019-04-21T23:52:49.804Z,74.00
2019-04-21T23:55:17.045Z,74.80
2019-04-21T23:57:48.047Z,74.80
